createdAt,value
2018-11-03T00:03:21.942Z,8.60
2018-11-03T00:08:26.339Z,8.50
2018-11-03T00:13:35.742Z,8.50
2018-11-03T00:18:39.802Z,8.50
2018-11-03T00:23:44.035Z,8.50
2018-11-03T00:28:47.926Z,8.50
2018-11-03T00:33:51.785Z,8.40
2018-11-03T00:38:55.662Z,8.40
2018-11-03T00:43:59.508Z,8.40
2018-11-03T00:49:03.613Z,8.50
2018-11-03T00:54:07.447Z,8.50
2018-11-03T00:59:11.295Z,8.50
2018-11-03T01:04:15.144Z,8.40
2018-11-03T01:09:19.010Z,8.40
2018-11-03T01:14:22.973Z,8.50
2018-11-03T01:19:26.837Z,8.50
2018-11-03T01:24:37.051Z,8.40
2018-11-03T01:29:40.922Z,8.30
2018-11-03T01:34:44.790Z,8.30
2018-11-03T01:39:48.644Z,8.30
2018-11-03T01:44:52.495Z,8.40
2018-11-03T01:49:56.338Z,8.40
2018-11-03T01:55:00.173Z,8.50
2018-11-03T02:00:04.271Z,8.50
2018-11-03T02:05:08.707Z,8.50
2018-11-03T02:10:12.834Z,8.50
2018-11-03T02:15:16.686Z,8.50
2018-11-03T02:20:20.532Z,8.40
2018-11-03T02:25:24.379Z,8.40
2018-11-03T02:30:28.929Z,8.40
2018-11-03T02:35:33.115Z,8.40
2018-11-03T02:40:36.962Z,8.50
2018-11-03T02:45:40.798Z,8.50
2018-11-03T02:50:44.650Z,8.50
2018-11-03T02:55:48.499Z,8.50
2018-11-03T03:00:52.363Z,8.50
2018-11-03T03:05:56.217Z,8.40
2018-11-03T03:11:00.052Z,8.40
2018-11-03T03:16:03.899Z,8.40
2018-11-03T03:21:07.779Z,8.40
2018-11-03T03:26:11.628Z,8.50
2018-11-03T03:31:15.461Z,8.50
2018-11-03T03:36:19.339Z,8.50
2018-11-03T03:41:23.183Z,8.50
2018-11-03T03:46:27.015Z,8.60
2018-11-03T03:51:30.951Z,8.70
2018-11-03T03:56:34.795Z,8.70
2018-11-03T04:01:38.642Z,8.70
2018-11-03T04:06:42.479Z,8.70
2018-11-03T04:11:46.340Z,8.70
2018-11-03T04:16:50.265Z,8.90
2018-11-03T04:21:54.116Z,8.90
2018-11-03T04:26:57.963Z,8.90
2018-11-03T04:32:01.803Z,8.90
2018-11-03T04:37:05.661Z,8.90
2018-11-03T04:42:16.327Z,8.90
2018-11-03T04:47:20.170Z,8.90
2018-11-03T04:52:24.026Z,8.80
2018-11-03T04:57:27.955Z,8.80
2018-11-03T05:02:31.795Z,8.80
2018-11-03T05:07:35.654Z,8.80
2018-11-03T05:12:39.526Z,8.80
2018-11-03T05:22:46.867Z,8.70
2018-11-03T05:27:50.749Z,8.70
2018-11-03T05:32:54.578Z,8.70
2018-11-03T05:37:58.423Z,8.70
2018-11-03T05:43:02.390Z,8.70
2018-11-03T05:48:06.191Z,8.70
2018-11-03T05:53:10.040Z,8.70
2018-11-03T05:58:13.883Z,8.70
2018-11-03T06:03:17.751Z,8.70
2018-11-03T06:08:21.619Z,8.70
2018-11-03T06:13:25.467Z,8.70
2018-11-03T06:18:29.313Z,8.80
2018-11-03T06:23:33.219Z,8.80
2018-11-03T06:28:37.002Z,8.80
2018-11-03T06:33:40.871Z,8.70
2018-11-03T06:38:44.837Z,8.70
2018-11-03T06:43:48.639Z,8.90
2018-11-03T06:48:53.750Z,8.90
2018-11-03T06:53:57.631Z,8.90
2018-11-03T06:59:01.491Z,8.90
2018-11-03T07:04:06.447Z,9.00
2018-11-03T07:09:12.110Z,9.10
2018-11-03T07:14:15.999Z,9.10
2018-11-03T07:19:20.939Z,9.20
2018-11-03T07:24:24.798Z,9.30
2018-11-03T07:29:28.708Z,9.40
2018-11-03T07:34:32.523Z,9.40
2018-11-03T07:39:36.390Z,9.50
2018-11-03T07:44:40.256Z,9.50
2018-11-03T07:49:44.113Z,9.50
2018-11-03T07:54:48.173Z,9.60
2018-11-03T07:59:51.955Z,9.70
2018-11-03T08:04:55.959Z,9.80
2018-11-03T08:10:00.888Z,10.00
2018-11-03T08:15:07.252Z,10.10
2018-11-03T08:20:12.004Z,10.30
2018-11-03T08:25:16.335Z,10.40
2018-11-03T08:30:20.333Z,10.50
2018-11-03T08:35:24.528Z,10.60
2018-11-03T08:40:28.444Z,10.70
2018-11-03T08:45:32.330Z,10.80
2018-11-03T08:50:36.495Z,10.90
2018-11-03T08:55:40.752Z,11.00
2018-11-03T09:00:44.738Z,11.20
2018-11-03T09:05:48.638Z,11.30
2018-11-03T09:10:52.548Z,11.30
2018-11-03T09:15:57.318Z,11.20
2018-11-03T09:21:01.331Z,11.20
2018-11-03T09:26:07.355Z,11.30
2018-11-03T09:31:11.910Z,11.20
2018-11-03T09:36:16.366Z,11.40
2018-11-03T09:41:20.736Z,11.50
2018-11-03T09:46:25.019Z,11.50
2018-11-03T09:51:29.407Z,11.50
2018-11-03T09:56:33.266Z,11.60
2018-11-03T10:01:37.990Z,11.80
2018-11-03T10:06:42.844Z,11.90
2018-11-03T10:11:47.483Z,12.00
2018-11-03T10:16:53.110Z,12.20
2018-11-03T10:21:59.959Z,12.10
2018-11-03T10:27:04.639Z,12.20
2018-11-03T10:32:09.175Z,12.10
2018-11-03T10:37:13.933Z,12.20
2018-11-03T10:42:18.588Z,12.30
2018-11-03T10:47:24.720Z,12.40
2018-11-03T10:52:29.629Z,12.30
2018-11-03T10:57:34.205Z,12.30
2018-11-03T11:02:44.176Z,12.50
2018-11-03T11:07:53.655Z,12.70
2018-11-03T11:13:01.148Z,12.90
2018-11-03T11:18:05.519Z,12.90
2018-11-03T11:23:09.886Z,12.90
2018-11-03T11:28:14.821Z,13.00
2018-11-03T11:33:19.673Z,13.00
2018-11-03T11:38:24.581Z,13.00
2018-11-03T11:43:30.000Z,13.10
2018-11-03T11:48:34.437Z,13.50
2018-11-03T11:53:41.419Z,13.80
2018-11-03T11:58:47.828Z,13.80
2018-11-03T12:03:51.948Z,14.10
2018-11-03T12:08:55.906Z,14.20
2018-11-03T12:13:59.826Z,14.10
2018-11-03T12:19:03.709Z,14.00
2018-11-03T12:24:07.576Z,13.90
2018-11-03T12:29:12.426Z,13.80
2018-11-03T12:34:16.271Z,13.80
2018-11-03T12:39:20.158Z,13.60
2018-11-03T12:44:24.194Z,13.50
2018-11-03T12:49:27.991Z,13.30
2018-11-03T12:54:38.331Z,13.20
2018-11-03T12:59:42.193Z,13.20
2018-11-03T13:04:46.058Z,13.10
2018-11-03T13:09:50.557Z,13.10
2018-11-03T13:14:54.343Z,13.10
2018-11-03T13:19:58.243Z,13.00
2018-11-03T13:25:02.093Z,13.20
2018-11-03T13:30:07.146Z,13.30
2018-11-03T13:35:12.123Z,13.40
2018-11-03T13:40:15.975Z,13.50
2018-11-03T13:45:19.818Z,13.50
2018-11-03T13:50:23.678Z,13.50
2018-11-03T13:55:27.574Z,13.40
2018-11-03T14:00:31.408Z,13.50
2018-11-03T14:05:35.303Z,13.50
2018-11-03T14:10:39.298Z,13.30
2018-11-03T14:15:43.158Z,13.20
2018-11-03T14:20:47.025Z,13.10
2018-11-03T14:25:51.723Z,13.00
2018-11-03T14:30:55.834Z,13.00
2018-11-03T14:35:59.942Z,12.90
2018-11-03T14:41:08.692Z,12.80
2018-11-03T14:46:12.599Z,12.70
2018-11-03T14:51:17.219Z,12.60
2018-11-03T14:56:21.140Z,12.50
2018-11-03T15:01:25.159Z,12.40
2018-11-03T15:06:29.237Z,12.30
2018-11-03T15:11:33.134Z,12.30
2018-11-03T15:16:37.309Z,12.20
2018-11-03T15:21:41.191Z,12.10
2018-11-03T15:26:45.112Z,12.10
2018-11-03T15:31:49.006Z,12.00
2018-11-03T15:36:52.990Z,12.00
2018-11-03T15:41:56.847Z,11.90
2018-11-03T15:47:00.734Z,11.90
2018-11-03T15:52:04.830Z,11.90
2018-11-03T15:57:08.727Z,11.90
2018-11-03T16:02:12.623Z,11.80
2018-11-03T16:07:16.476Z,11.70
2018-11-03T16:12:20.525Z,11.70
2018-11-03T16:17:24.296Z,11.60
2018-11-03T16:22:28.276Z,11.50
2018-11-03T16:27:32.142Z,11.50
2018-11-03T16:32:36.271Z,11.40
2018-11-03T16:37:40.388Z,11.40
2018-11-03T16:42:45.191Z,11.30
2018-11-03T16:47:49.163Z,11.30
2018-11-03T16:52:53.547Z,11.20
2018-11-03T16:57:57.536Z,11.10
2018-11-03T17:03:01.494Z,11.10
2018-11-03T17:08:05.424Z,11.10
2018-11-03T17:13:09.371Z,11.00
2018-11-03T17:18:13.244Z,11.00
2018-11-03T17:23:17.186Z,10.90
2018-11-03T17:28:21.007Z,10.90
2018-11-03T17:33:24.916Z,10.90
2018-11-03T17:38:28.784Z,11.00
2018-11-03T17:43:32.707Z,10.90
2018-11-03T17:48:37.465Z,10.90
2018-11-03T17:53:41.637Z,10.90
2018-11-03T17:58:46.575Z,10.90
2018-11-03T18:03:52.252Z,10.90
2018-11-03T18:08:56.139Z,10.80
2018-11-03T18:14:00.021Z,10.80
2018-11-03T18:19:04.028Z,10.80
2018-11-03T18:24:08.007Z,10.70
2018-11-03T18:29:11.907Z,10.70
2018-11-03T18:34:15.818Z,10.70
2018-11-03T18:39:19.686Z,10.80
2018-11-03T18:44:24.527Z,10.70
2018-11-03T18:49:28.398Z,10.80
2018-11-03T18:54:32.259Z,10.70
2018-11-03T18:59:36.227Z,10.70
2018-11-03T19:04:40.087Z,10.70
2018-11-03T19:09:44.020Z,10.70
2018-11-03T19:14:47.952Z,10.70
2018-11-03T19:19:51.831Z,10.70
2018-11-03T19:24:56.692Z,10.70
2018-11-03T19:30:00.700Z,10.60
2018-11-03T19:35:04.639Z,10.60
2018-11-03T19:40:10.162Z,10.60
2018-11-03T19:45:14.063Z,10.60
2018-11-03T19:50:17.987Z,10.60
2018-11-03T19:55:21.911Z,10.60
2018-11-03T20:00:25.933Z,10.60
2018-11-03T20:05:31.324Z,10.50
2018-11-03T20:10:35.228Z,10.60
2018-11-03T20:15:39.109Z,10.50
2018-11-03T20:20:45.511Z,10.50
2018-11-03T20:25:49.388Z,10.40
2018-11-03T20:30:53.262Z,10.40
2018-11-03T20:35:57.175Z,10.40
2018-11-03T20:41:01.159Z,10.30
2018-11-03T20:46:05.482Z,10.30
2018-11-03T20:51:11.316Z,10.30
2018-11-03T20:56:15.255Z,10.30
2018-11-03T21:01:19.182Z,10.20
2018-11-03T21:06:23.244Z,10.20
2018-11-03T21:11:27.145Z,10.20
2018-11-03T21:16:31.144Z,10.20
2018-11-03T21:21:34.984Z,10.20
2018-11-03T21:26:38.963Z,10.20
2018-11-03T21:31:42.860Z,10.20
2018-11-03T21:36:46.765Z,10.20
2018-11-03T21:41:50.650Z,10.20
2018-11-03T21:46:54.753Z,10.20
2018-11-03T21:51:58.520Z,10.20
2018-11-03T21:57:02.479Z,10.20
2018-11-03T22:07:09.947Z,10.10
2018-11-03T22:12:14.006Z,10.10
2018-11-03T22:17:17.967Z,10.20
2018-11-03T22:22:21.836Z,10.20
2018-11-03T22:27:25.723Z,10.20
2018-11-03T22:32:29.707Z,10.10
2018-11-03T22:37:33.563Z,10.10
2018-11-03T22:42:37.511Z,10.20
2018-11-03T22:47:41.569Z,10.20
2018-11-03T22:52:45.565Z,10.20
2018-11-03T22:57:49.735Z,10.20
2018-11-03T23:02:53.735Z,10.20
2018-11-03T23:07:57.667Z,10.20
2018-11-03T23:13:01.948Z,10.10
2018-11-03T23:18:05.849Z,10.10
2018-11-03T23:23:09.742Z,10.10
2018-11-03T23:28:13.971Z,10.10
2018-11-03T23:33:17.825Z,10.20
2018-11-03T23:38:21.675Z,10.10
2018-11-03T23:43:25.730Z,10.10
2018-11-03T23:48:29.729Z,10.10
2018-11-03T23:53:33.598Z,10.10
2018-11-03T23:58:38.465Z,10.10
